Time;durP1;ratioP1;P1;durP2;ratioP2;P2;SDS_P1;SDS_P2;PMS_P1;PMS_P2;Temp;Humidity;BMP_temperature;BMP_pressure;BME280_temperature;BME280_humidity;BME280_pressure;Samples;Min_cycle;Max_cycle;Signal;HPM_P1;HPM_P2
2022/06/30 00:02:10;;;;;;;4.07;3.87;;;19.50;99.90;;;;;;5018048;28;20612;-70
2022/06/30 00:04:58;;;;;;;3.97;3.73;;;19.40;99.90;;;;;;5018963;28;20629;-70
2022/06/30 00:08:01;;;;;;;4.07;3.67;;;19.40;99.90;;;;;;5013271;28;20605;-70
2022/06/30 00:10:49;;;;;;;3.90;3.70;;;19.30;99.90;;;;;;5012479;28;20545;-70
2022/06/30 00:13:40;;;;;;;4.40;4.10;;;19.30;99.90;;;;;;5015380;28;20539;-70
2022/06/30 00:16:30;;;;;;;4.07;3.77;;;19.20;99.90;;;;;;5013063;28;20559;-70
2022/06/30 00:19:18;;;;;;;4.03;3.80;;;19.20;99.90;;;;;;5016825;28;20452;-69
2022/06/30 00:22:07;;;;;;;3.93;3.53;;;19.20;99.90;;;;;;5015742;28;20482;-70
2022/06/30 00:24:56;;;;;;;3.33;3.13;;;19.20;99.90;;;;;;5016161;28;20476;-69
2022/06/30 00:27:47;;;;;;;4.57;4.13;;;19.10;99.90;;;;;;5017875;28;20897;-70
2022/06/30 00:30:38;;;;;;;4.37;4.00;;;19.10;99.90;;;;;;5014627;28;20646;-70
2022/06/30 00:33:35;;;;;;;3.70;3.50;;;19.10;99.90;;;;;;5015037;28;20458;-69
2022/06/30 00:36:26;;;;;;;4.20;3.90;;;19.00;99.90;;;;;;5014417;28;20570;-70
2022/06/30 00:39:14;;;;;;;4.10;3.70;;;19.00;99.90;;;;;;5012351;28;20463;-70
2022/06/30 00:42:09;;;;;;;3.70;3.50;;;19.00;99.90;;;;;;5014935;28;20546;-70
2022/06/30 00:45:04;;;;;;;3.83;3.63;;;19.00;99.90;;;;;;5014297;28;20490;-70
2022/06/30 00:48:03;;;;;;;3.70;3.50;;;19.00;99.90;;;;;;5016004;28;20548;-70
2022/06/30 00:50:51;;;;;;;4.30;3.67;;;19.00;99.90;;;;;;5016454;28;20936;-69
2022/06/30 00:53:41;;;;;;;3.97;3.67;;;19.00;99.90;;;;;;5014133;28;20530;-70
2022/06/30 00:56:33;;;;;;;4.43;4.07;;;19.00;99.90;;;;;;5016763;28;20647;-70
2022/06/30 00:59:33;;;;;;;3.90;3.60;;;18.90;99.90;;;;;;5016366;28;20530;-70
2022/06/30 01:02:21;;;;;;;3.97;3.67;;;18.90;99.90;;;;;;5016807;28;21058;-70
2022/06/30 01:05:19;;;;;;;4.13;3.73;;;18.90;99.90;;;;;;5014361;28;20483;-70
2022/06/30 01:08:11;;;;;;;4.13;3.83;;;18.80;99.90;;;;;;5011828;28;22281;-70
2022/06/30 01:14:12;;;;;;;4.80;4.07;;;18.80;99.90;;;;;;5017459;28;20585;-69
2022/06/30 01:17:00;;;;;;;4.63;4.33;;;18.80;99.90;;;;;;5012896;28;20971;-70
2022/06/30 01:19:53;;;;;;;4.30;4.00;;;18.80;99.90;;;;;;5013805;28;20467;-69
2022/06/30 01:22:46;;;;;;;4.17;3.87;;;18.70;99.90;;;;;;5015879;28;20512;-69
2022/06/30 01:25:40;;;;;;;3.97;3.60;;;18.60;99.90;;;;;;5016706;28;20546;-70
2022/06/30 01:28:29;;;;;;;4.90;4.60;;;18.60;99.90;;;;;;5022593;28;20554;-70
2022/06/30 01:31:17;;;;;;;4.20;3.80;;;18.50;99.90;;;;;;5018917;28;20644;-70
2022/06/30 01:34:07;;;;;;;4.23;3.90;;;18.40;99.90;;;;;;5018713;28;20531;-70
2022/06/30 01:36:56;;;;;;;4.60;4.30;;;18.40;99.90;;;;;;5019246;28;20558;-70
2022/06/30 01:39:45;;;;;;;4.53;4.20;;;18.30;99.90;;;;;;5019907;28;20538;-70
2022/06/30 01:42:34;;;;;;;4.70;4.40;;;18.30;99.90;;;;;;5034189;28;20528;-70
2022/06/30 01:45:27;;;;;;;4.73;4.33;;;18.30;99.90;;;;;;5040961;28;20519;-70
2022/06/30 01:48:16;;;;;;;4.50;4.20;;;18.20;99.90;;;;;;5029132;28;20551;-69
2022/06/30 01:51:12;;;;;;;5.23;4.80;;;18.10;99.90;;;;;;5019850;28;20567;-70
2022/06/30 01:54:10;;;;;;;5.00;4.60;;;18.00;99.90;;;;;;5022382;28;21025;-70
2022/06/30 01:57:00;;;;;;;4.63;4.23;;;17.90;99.90;;;;;;5019611;28;20510;-70
2022/06/30 01:59:51;;;;;;;4.80;4.40;;;17.90;99.90;;;;;;5020948;28;20589;-70
2022/06/30 02:02:40;;;;;;;4.50;4.20;;;17.80;99.90;;;;;;5018946;28;21198;-70
2022/06/30 02:05:28;;;;;;;5.00;4.60;;;17.80;99.90;;;;;;5016267;28;20714;-70
2022/06/30 02:08:17;;;;;;;5.37;4.97;;;17.70;99.90;;;;;;5020413;28;20549;-70
2022/06/30 02:11:05;;;;;;;5.03;4.63;;;17.70;99.90;;;;;;5020078;28;21721;-70
2022/06/30 02:13:59;;;;;;;5.13;4.60;;;17.70;99.90;;;;;;5018802;28;20987;-69
2022/06/30 02:16:47;;;;;;;5.03;4.63;;;17.60;99.90;;;;;;5019955;28;20489;-70
2022/06/30 02:19:35;;;;;;;5.80;5.30;;;17.60;99.90;;;;;;5017810;28;20472;-69
2022/06/30 02:22:24;;;;;;;5.20;4.80;;;17.50;99.90;;;;;;5017127;28;20557;-67
2022/06/30 02:25:12;;;;;;;5.73;5.20;;;17.40;99.90;;;;;;5014711;28;22273;-70
2022/06/30 02:28:05;;;;;;;5.50;5.07;;;17.40;99.90;;;;;;5013482;28;20903;-69
2022/06/30 02:30:54;;;;;;;5.33;4.97;;;17.40;99.90;;;;;;5020020;28;20472;-70
2022/06/30 02:33:48;;;;;;;6.07;5.60;;;17.40;99.90;;;;;;5017251;28;20813;-70
2022/06/30 02:36:38;;;;;;;5.77;5.27;;;17.40;99.90;;;;;;5020071;28;20487;-69
2022/06/30 02:39:28;;;;;;;5.70;5.10;;;;;;;;;;5015115;28;20478;-70
2022/06/30 02:42:16;;;;;;;5.70;5.10;;;;;;;;;;5017374;28;20548;-70
2022/06/30 02:45:05;;;;;;;5.10;4.70;;;;;;;;;;5014805;28;20476;-70
2022/06/30 02:47:58;;;;;;;5.60;5.20;;;;;;;;;;5014619;28;20558;-70
2022/06/30 02:50:47;;;;;;;5.90;5.30;;;;;;;;;;5017361;28;20480;-69
2022/06/30 02:53:42;;;;;;;5.80;5.40;;;;;;;;;;5018251;28;21067;-70
2022/06/30 02:56:40;;;;;;;5.23;4.87;;;;;;;;;;5016107;28;20529;-70
2022/06/30 02:59:33;;;;;;;5.60;5.20;;;17.30;99.90;;;;;;5015605;28;20467;-70
2022/06/30 03:02:21;;;;;;;5.10;4.70;;;17.10;99.90;;;;;;5017049;28;20456;-70
2022/06/30 03:05:14;;;;;;;5.80;5.40;;;17.00;99.90;;;;;;5012737;28;20536;-70
2022/06/30 03:08:15;;;;;;;5.70;5.20;;;17.00;99.90;;;;;;5014404;28;20497;-70
2022/06/30 03:11:03;;;;;;;5.37;5.00;;;17.00;99.90;;;;;;5014558;28;21190;-70
2022/06/30 03:13:58;;;;;;;6.00;5.50;;;17.00;99.90;;;;;;5015209;28;20562;-69
2022/06/30 03:16:46;;;;;;;6.20;5.80;;;17.00;99.90;;;;;;5013962;28;20539;-70
2022/06/30 03:19:38;;;;;;;5.90;5.50;;;16.90;99.90;;;;;;5017398;28;20991;-69
2022/06/30 03:22:37;;;;;;;5.77;5.37;;;16.90;99.90;;;;;;5018447;28;20458;-70
2022/06/30 03:25:54;;;;;;;6.00;5.60;;;16.90;99.90;;;;;;5013118;28;20868;-70
2022/06/30 03:28:47;;;;;;;6.40;5.90;;;16.90;99.90;;;;;;5014817;28;20503;-70
2022/06/30 03:31:46;;;;;;;5.90;5.43;;;16.80;99.90;;;;;;5014369;28;20564;-70
2022/06/30 03:34:43;;;;;;;5.73;5.33;;;16.70;99.90;;;;;;5013720;28;20976;-70
2022/06/30 03:37:36;;;;;;;5.70;5.20;;;16.70;99.90;;;;;;5015655;28;20460;-70
2022/06/30 03:40:35;;;;;;;5.90;5.40;;;16.70;99.90;;;;;;5017032;28;20484;-70
2022/06/30 03:43:43;;;;;;;5.90;5.40;;;16.70;99.90;;;;;;5012510;28;20460;-70
2022/06/30 03:46:32;;;;;;;5.90;5.50;;;16.70;99.90;;;;;;5014229;28;20500;-70
2022/06/30 03:49:21;;;;;;;6.20;5.60;;;16.70;99.90;;;;;;5014198;28;20637;-70
2022/06/30 03:52:35;;;;;;;5.77;5.37;;;16.70;99.90;;;;;;5014629;28;20447;-70
2022/06/30 03:55:51;;;;;;;6.10;5.63;;;16.70;99.90;;;;;;5014590;28;20766;-70
2022/06/30 03:58:55;;;;;;;5.90;5.40;;;;;;;;;;5016960;28;20482;-70
2022/06/30 04:02:16;;;;;;;5.50;5.10;;;;;;;;;;5010070;28;20553;-70
2022/06/30 04:05:15;;;;;;;6.83;6.20;;;;;;;;;;5017370;28;20575;-70
2022/06/30 04:08:09;;;;;;;6.10;5.60;;;;;;;;;;5019117;28;20451;-70
2022/06/30 04:11:02;;;;;;;6.40;5.90;;;;;;;;;;5018078;28;20879;-70
2022/06/30 04:14:00;;;;;;;6.03;5.53;;;;;;;;;;5008274;28;20460;-70
2022/06/30 04:16:51;;;;;;;5.30;5.00;;;;;;;;;;5015687;28;20476;-70
2022/06/30 04:20:04;;;;;;;5.90;5.10;;;;;;;;;;5012440;28;20476;-70
2022/06/30 04:23:06;;;;;;;6.23;5.70;;;;;;;;;;5017184;28;20888;-70
2022/06/30 04:25:58;;;;;;;6.10;5.70;;;;;;;;;;5012939;28;20483;-70
2022/06/30 04:29:02;;;;;;;6.60;6.10;;;;;;;;;;5014086;28;20956;-70
2022/06/30 04:34:59;;;;;;;6.03;5.60;;;;;;;;;;5016963;28;20478;-70
2022/06/30 04:37:48;;;;;;;6.70;6.10;;;;;;;;;;5010918;28;20548;-70
2022/06/30 04:43:52;;;;;;;6.10;5.60;;;;;;;;;;5012339;28;20571;-70
2022/06/30 04:46:44;;;;;;;6.40;5.80;;;;;;;;;;5012756;28;20551;-70
2022/06/30 04:49:47;;;;;;;5.83;5.43;;;;;;;;;;5011071;28;20514;-70
2022/06/30 04:52:51;;;;;;;6.33;5.93;;;;;;;;;;5011691;28;20459;-70
2022/06/30 04:55:45;;;;;;;7.37;5.80;;;;;;;;;;5014447;28;20476;-71
2022/06/30 04:58:36;;;;;;;5.80;5.30;;;;;;;;;;5004913;28;20468;-70
2022/06/30 05:01:27;;;;;;;5.63;5.23;;;;;;;;;;5006529;28;20872;-70
2022/06/30 05:04:22;;;;;;;6.20;5.80;;;;;;;;;;5011325;28;20502;-69
2022/06/30 05:07:11;;;;;;;5.73;5.23;;;;;;;;;;5012176;28;20459;-69
2022/06/30 05:10:06;;;;;;;6.33;5.60;;;;;;;;;;5017667;28;20524;-69
2022/06/30 05:12:56;;;;;;;5.97;5.47;;;;;;;;;;5018374;28;20554;-70
2022/06/30 05:15:45;;;;;;;6.07;5.57;;;;;;;;;;5016092;28;20517;-69
2022/06/30 05:18:35;;;;;;;6.77;6.07;;;;;;;;;;5008085;28;20598;-70
2022/06/30 05:21:25;;;;;;;6.27;5.67;;;;;;;;;;5006549;28;20522;-70
2022/06/30 05:27:24;;;;;;;6.53;5.93;;;;;;;;;;5004843;28;20439;-69
2022/06/30 05:30:12;;;;;;;6.40;5.90;;;;;;;;;;4999056;28;20490;-70
2022/06/30 05:33:06;;;;;;;5.90;5.27;;;;;;;;;;4996687;28;20479;-70
2022/06/30 05:35:55;;;;;;;6.20;5.70;;;;;;;;;;4997366;28;20709;-71
2022/06/30 05:38:48;;;;;;;5.73;5.03;;;;;;;;;;5006699;28;20667;-70
2022/06/30 05:41:41;;;;;;;6.83;5.80;;;;;;;;;;5002491;28;20506;-69
2022/06/30 05:44:30;;;;;;;5.63;5.10;;;;;;;;;;5006419;28;20474;-70
2022/06/30 05:47:26;;;;;;;6.60;5.40;;;;;;;;;;5009820;28;20828;-70
2022/06/30 05:50:14;;;;;;;5.80;5.40;;;;;;;;;;4999165;28;20592;-70
2022/06/30 05:53:03;;;;;;;6.17;5.57;;;;;;;;;;5007073;28;23005;-70
2022/06/30 05:55:53;;;;;;;5.40;5.00;;;;;;;;;;5009307;28;20487;-70
2022/06/30 05:58:45;;;;;;;6.40;5.90;;;;;;;;;;5004724;28;20618;-73
2022/06/30 06:01:33;;;;;;;6.53;5.70;;;;;;;;;;5008374;28;21013;-70
2022/06/30 06:04:22;;;;;;;6.20;5.60;;;;;;;;;;5010331;28;20570;-70
2022/06/30 06:07:11;;;;;;;6.07;5.57;;;;;;;;;;5028591;28;20551;-70
2022/06/30 06:10:02;;;;;;;6.30;5.70;;;;;;;;;;5029789;28;20534;-70
2022/06/30 06:13:00;;;;;;;6.23;5.60;;;;;;;;;;5019312;28;20526;-70
2022/06/30 06:15:49;;;;;;;5.93;5.43;;;;;;;;;;5001475;28;20480;-70
2022/06/30 06:18:38;;;;;;;5.80;5.40;;;;;;;;;;4999188;28;20475;-70
2022/06/30 06:21:26;;;;;;;5.63;5.10;;;;;;;;;;5009415;28;20490;-69
2022/06/30 06:24:15;;;;;;;6.20;5.60;;;;;;;;;;5006842;28;21625;-70
2022/06/30 06:27:04;;;;;;;5.70;5.20;;;;;;;;;;5004951;28;20456;-69
2022/06/30 06:29:56;;;;;;;6.10;5.60;;;;;;;;;;5009088;28;20486;-70
2022/06/30 06:32:44;;;;;;;7.93;5.43;;;;;;;;;;5007986;28;20567;-70
2022/06/30 06:35:33;;;;;;;6.17;5.57;;;;;;;;;;5011401;28;21059;-70
2022/06/30 06:38:24;;;;;;;6.10;5.60;;;;;;;;;;5007264;28;20491;-70
2022/06/30 06:41:12;;;;;;;8.00;6.10;;;;;;;;;;5009145;28;21044;-70
2022/06/30 06:44:01;;;;;;;6.57;5.90;;;;;;;;;;5006366;28;21054;-70
2022/06/30 06:46:51;;;;;;;6.07;5.50;;;;;;;;;;5006682;28;20584;-70
2022/06/30 06:49:39;;;;;;;5.97;5.47;;;;;;;;;;5004313;28;20484;-70
2022/06/30 06:52:28;;;;;;;5.60;5.13;;;;;;;;;;5005234;28;20574;-70
2022/06/30 06:55:22;;;;;;;6.00;5.60;;;;;;;;;;5003330;28;20484;-70
2022/06/30 06:58:13;;;;;;;6.20;5.13;;;;;;;;;;5010454;28;20467;-70
2022/06/30 07:01:04;;;;;;;6.30;5.70;;;;;;;;;;5012664;28;20482;-70
2022/06/30 07:03:55;;;;;;;5.73;5.33;;;;;;;;;;5008178;28;20677;-70
2022/06/30 07:06:43;;;;;;;5.17;4.77;;;;;;;;;;5011031;28;20601;-70
2022/06/30 07:09:32;;;;;;;5.77;5.37;;;;;;;;;;5007573;28;20525;-70
2022/06/30 07:12:21;;;;;;;5.70;5.30;;;;;;;;;;5000027;28;20491;-70
2022/06/30 07:15:15;;;;;;;5.93;5.40;;;;;;;;;;5000696;28;20537;-70
2022/06/30 07:18:04;;;;;;;6.40;5.93;;;;;;;;;;5005870;28;20447;-70
2022/06/30 07:20:53;;;;;;;5.70;5.23;;;;;;;;;;5009790;28;20477;-70
2022/06/30 07:23:42;;;;;;;6.50;6.00;;;;;;;;;;5011359;28;20817;-70
2022/06/30 07:26:31;;;;;;;6.07;5.67;;;;;;;;;;5013085;28;20545;-70
2022/06/30 07:29:20;;;;;;;6.00;5.60;;;;;;;;;;5002977;28;20452;-70
2022/06/30 07:32:09;;;;;;;5.83;5.33;;;;;;;;;;5012576;28;20998;-70
2022/06/30 07:34:57;;;;;;;5.30;4.93;;;;;;;;;;5010787;28;20506;-70
2022/06/30 07:37:47;;;;;;;6.10;5.50;;;;;;;;;;5008672;28;20547;-68
2022/06/30 07:40:36;;;;;;;6.70;5.70;;;;;;;;;;5012279;28;20475;-68
2022/06/30 07:43:25;;;;;;;5.90;5.50;;;;;;;;;;5004208;28;20475;-68
2022/06/30 07:46:16;;;;;;;5.57;5.17;;;;;;;;;;5013522;28;20591;-69
2022/06/30 07:49:05;;;;;;;5.93;5.33;;;;;;;;;;5013783;28;21035;-69
2022/06/30 07:51:53;;;;;;;5.40;5.00;;;;;;;;;;5018024;28;20460;-69
2022/06/30 07:54:45;;;;;;;6.93;5.40;;;;;;;;;;5007839;28;20480;-69
2022/06/30 07:57:37;;;;;;;6.00;5.50;;;;;;;;;;5006301;28;20531;-69
2022/06/30 08:00:26;;;;;;;5.27;4.77;;;;;;;;;;5005388;28;20511;-68
2022/06/30 08:03:14;;;;;;;5.50;5.10;;;;;;;;;;5010704;28;20452;-69
2022/06/30 08:06:03;;;;;;;5.30;4.90;;;;;;;;;;5018395;28;21090;-69
2022/06/30 08:08:52;;;;;;;5.63;5.23;;;;;;;;;;5012686;28;20482;-68
2022/06/30 08:11:42;;;;;;;5.77;5.27;;;;;;;;;;5013398;28;21732;-68
2022/06/30 08:14:33;;;;;;;5.90;5.50;;;;;;;;;;4999904;28;20483;-69
2022/06/30 08:17:21;;;;;;;5.30;4.90;;;;;;;;;;5004951;28;20954;-69
2022/06/30 08:20:10;;;;;;;6.43;5.73;;;;;;;;;;5006953;28;20503;-69
2022/06/30 08:22:59;;;;;;;5.50;5.00;;;;;;;;;;5013785;28;20547;-69
2022/06/30 08:25:49;;;;;;;5.70;5.33;;;;;;;;;;5017020;28;20586;-69
2022/06/30 08:28:39;;;;;;;5.97;5.53;;;;;;;;;;5011123;28;20459;-70
2022/06/30 08:31:35;;;;;;;6.53;5.97;;;;;;;;;;5010673;28;20486;-71
2022/06/30 08:34:24;;;;;;;5.53;5.10;;;;;;;;;;5001155;28;20537;-69
2022/06/30 08:37:13;;;;;;;5.23;4.83;;;;;;;;;;5000775;28;20538;-69
2022/06/30 08:43:09;;;;;;;6.70;5.97;;;;;;;;;;5018967;28;20526;-69
2022/06/30 08:46:00;;;;;;;5.53;5.10;;;;;;;;;;5013119;28;20498;-69
2022/06/30 08:48:49;;;;;;;5.00;4.67;;;;;;;;;;4994797;28;20451;-69
2022/06/30 08:51:37;;;;;;;5.70;5.30;;;;;;;;;;5004110;28;20459;-69
2022/06/30 08:54:26;;;;;;;4.67;4.37;;;;;;;;;;5005656;28;20561;-69
2022/06/30 08:57:15;;;;;;;4.17;3.97;;;;;;;;;;5001674;28;20453;-69
2022/06/30 09:00:04;;;;;;;4.40;4.10;;;;;;;;;;5007595;28;20478;-70
2022/06/30 09:02:57;;;;;;;4.87;4.47;;;;;;;;;;5009889;28;20491;-69
2022/06/30 09:05:46;;;;;;;5.50;4.90;;;;;;;;;;5009939;28;20547;-69
2022/06/30 09:08:34;;;;;;;5.30;4.90;;;;;;;;;;5008811;28;20805;-69
2022/06/30 09:11:38;;;;;;;4.73;4.33;;;;;;;;;;5001398;28;20521;-68
2022/06/30 09:14:38;;;;;;;4.13;3.83;;;;;;;;;;5012636;28;20952;-69
2022/06/30 09:17:27;;;;;;;5.13;4.80;;;;;;;;;;5010500;28;20460;-69
2022/06/30 09:20:17;;;;;;;4.50;4.10;;;;;;;;;;5009935;28;20488;-69
2022/06/30 09:23:22;;;;;;;4.33;4.03;;;;;;;;;;4995784;28;20626;-69
2022/06/30 09:26:18;;;;;;;4.20;3.97;;;;;;;;;;5001344;28;20487;-69
2022/06/30 09:29:08;;;;;;;4.43;4.07;;;;;;;;;;4994203;28;20567;-70
2022/06/30 09:32:18;;;;;;;4.77;4.30;;;;;;;;;;4998325;28;20504;-70
2022/06/30 09:35:10;;;;;;;4.90;4.13;;;;;;;;;;5006802;28;20483;-70
2022/06/30 09:38:03;;;;;;;4.80;4.40;;;;;;;;;;5000608;28;20467;-70
2022/06/30 09:41:04;;;;;;;4.87;4.43;;;;;;;;;;5010976;28;20478;-70
2022/06/30 09:43:53;;;;;;;4.20;3.90;;;;;;;;;;5006132;28;20558;-70
2022/06/30 09:46:55;;;;;;;4.60;4.30;;;;;;;;;;5003746;28;20483;-70
2022/06/30 09:49:45;;;;;;;4.17;3.87;;;;;;;;;;5006850;28;20470;-70
2022/06/30 09:52:34;;;;;;;4.60;4.30;;;;;;;;;;5004559;28;20488;-70
2022/06/30 09:55:24;;;;;;;4.67;4.37;;;;;;;;;;5004101;28;20585;-70
2022/06/30 09:58:14;;;;;;;6.37;4.43;;;;;;;;;;5008278;28;20453;-70
2022/06/30 10:01:03;;;;;;;4.67;4.30;;;;;;;;;;5003098;28;20552;-70
2022/06/30 10:04:00;;;;;;;4.40;4.00;;;;;;;;;;5005481;28;20474;-70
2022/06/30 10:06:49;;;;;;;4.50;4.30;;;;;;;;;;5006153;28;20534;-70
2022/06/30 10:09:38;;;;;;;4.20;3.90;;;;;;;;;;4997663;28;20483;-69
2022/06/30 10:12:28;;;;;;;4.80;4.40;;;;;;;;;;4992703;28;21337;-70
2022/06/30 10:15:17;;;;;;;4.80;4.40;;;;;;;;;;5000741;28;20591;-69
2022/06/30 10:18:06;;;;;;;4.00;3.80;;;;;;;;;;5006914;28;20576;-71
2022/06/30 10:20:55;;;;;;;4.90;4.20;;;;;;;;;;5006787;28;20705;-70
2022/06/30 10:23:45;;;;;;;4.33;4.03;;;;;;;;;;4999761;28;20544;-70
2022/06/30 10:29:53;;;;;;;4.80;4.40;;;;;;;;;;5003511;28;20621;-71
2022/06/30 10:32:44;;;;;;;4.90;4.50;;;;;;;;;;5006228;28;20468;-69
2022/06/30 10:35:37;;;;;;;4.83;4.53;;;;;;;;;;5006978;28;20484;-70
2022/06/30 10:38:33;;;;;;;5.17;4.77;;;;;;;;;;5002990;28;20461;-70
2022/06/30 10:41:25;;;;;;;5.17;4.77;;;;;;;;;;5004856;28;20488;-70
2022/06/30 10:44:15;;;;;;;4.53;4.13;;;;;;;;;;5013518;28;20480;-70
2022/06/30 10:47:09;;;;;;;4.60;4.20;;;;;;;;;;5011248;28;20515;-70
2022/06/30 10:49:59;;;;;;;5.17;4.70;;;;;;;;;;5010825;28;20498;-70
2022/06/30 10:52:54;;;;;;;4.83;4.30;;;;;;;;;;5012369;28;20459;-70
2022/06/30 10:55:46;;;;;;;4.70;4.30;;;;;;;;;;5003215;28;21024;-70
2022/06/30 10:58:34;;;;;;;4.93;4.53;;;;;;;;;;5004633;28;20444;-71
2022/06/30 11:01:23;;;;;;;4.60;4.23;;;;;;;;;;5011190;28;20632;-70
2022/06/30 11:04:13;;;;;;;4.80;4.40;;;;;;;;;;5008976;28;20921;-70
2022/06/30 11:07:02;;;;;;;4.73;4.47;;;;;;;;;;5013163;28;20516;-71
2022/06/30 11:10:02;;;;;;;5.13;4.73;;;;;;;;;;5001438;28;20522;-70
2022/06/30 11:13:08;;;;;;;9.07;5.10;;;;;;;;;;5001936;28;20512;-70
2022/06/30 11:15:58;;;;;;;5.00;4.33;;;;;;;;;;5008006;28;20495;-69
2022/06/30 11:18:47;;;;;;;5.00;4.70;;;;;;;;;;5010857;28;20448;-69
2022/06/30 11:21:43;;;;;;;4.87;4.57;;;;;;;;;;5008567;28;20597;-69
2022/06/30 11:24:32;;;;;;;5.10;4.70;;;;;;;;;;5005418;28;21078;-69
2022/06/30 11:27:22;;;;;;;5.13;4.73;;;;;;;;;;5001533;28;20943;-69
2022/06/30 11:30:11;;;;;;;4.80;4.40;;;;;;;;;;5006472;28;20979;-69
2022/06/30 11:33:00;;;;;;;4.90;4.50;;;;;;;;;;5005715;28;20469;-68
2022/06/30 11:36:06;;;;;;;4.97;4.57;;;;;;;;;;5002754;28;20487;-69
2022/06/30 11:39:00;;;;;;;5.43;4.93;;;;;;;;;;5003644;28;20456;-67
2022/06/30 11:42:00;;;;;;;4.60;4.30;;;;;;;;;;5002606;28;20463;-68
2022/06/30 11:44:48;;;;;;;5.33;4.80;;;;;;;;;;5006985;28;20811;-68
2022/06/30 11:47:37;;;;;;;5.37;4.97;;;;;;;;;;5007082;28;20495;-68
2022/06/30 11:50:36;;;;;;;5.00;4.70;;;;;;;;;;5002919;28;20476;-67
2022/06/30 11:53:24;;;;;;;5.67;5.17;;;;;;;;;;5007595;28;20452;-70
2022/06/30 11:56:14;;;;;;;4.63;4.23;;;;;;;;;;5007518;28;20494;-70
2022/06/30 11:59:09;;;;;;;5.07;4.77;;;;;;;;;;5011578;28;20444;-69
2022/06/30 12:02:03;;;;;;;5.70;5.23;;;;;;;;;;5005838;28;20452;-69
2022/06/30 12:04:52;;;;;;;4.77;4.47;;;;;;;;;;5005503;28;20530;-69
2022/06/30 12:07:41;;;;;;;5.23;4.87;;;;;;;;;;5004064;28;20475;-70
2022/06/30 12:10:30;;;;;;;5.20;4.80;;;;;;;;;;5001679;28;20538;-70
2022/06/30 12:13:20;;;;;;;5.30;5.00;;;;;;;;;;5006659;28;20483;-69
2022/06/30 12:16:11;;;;;;;4.80;4.50;;;;;;;;;;5007188;28;20491;-69
2022/06/30 12:18:59;;;;;;;4.70;4.40;;;;;;;;;;5000583;28;21058;-67
2022/06/30 12:21:48;;;;;;;5.70;4.70;;;;;;;;;;5004904;28;20574;-67
2022/06/30 12:24:38;;;;;;;5.37;4.73;;;;;;;;;;5007887;28;20570;-68
2022/06/30 12:27:27;;;;;;;4.80;4.50;;;;;;;;;;5001948;28;20502;-68
2022/06/30 12:30:25;;;;;;;5.03;4.73;;;;;;;;;;5003731;28;20601;-67
2022/06/30 12:33:15;;;;;;;5.60;5.20;;;;;;;;;;4986658;28;20574;-68
2022/06/30 12:36:06;;;;;;;6.33;4.87;;;;;;;;;;4999160;28;20486;-68
2022/06/30 12:38:54;;;;;;;5.80;5.40;;;;;;;;;;5008922;28;20544;-67
2022/06/30 12:41:43;;;;;;;4.80;4.50;;;;;;;;;;5008308;28;20525;-67
2022/06/30 12:44:34;;;;;;;5.20;4.90;;;;;;;;;;5006761;28;20976;-68
2022/06/30 12:47:24;;;;;;;5.33;4.93;;;;;;;;;;5003930;28;20554;-68
2022/06/30 12:50:21;;;;;;;4.90;4.60;;;;;;;;;;5005196;28;20503;-67
2022/06/30 12:53:19;;;;;;;5.50;5.10;;;;;;;;;;5004846;28;20475;-67
2022/06/30 12:56:20;;;;;;;5.57;5.17;;;;;;;;;;5008601;28;20483;-68
2022/06/30 12:59:10;;;;;;;5.50;5.00;;;;;;;;;;5006104;28;20552;-68
2022/06/30 13:02:00;;;;;;;5.10;4.60;;;;;;;;;;5005203;28;21095;-68
2022/06/30 13:04:52;;;;;;;5.80;5.10;;;;;;;;;;5001575;28;20924;-68
2022/06/30 13:07:41;;;;;;;4.93;4.63;;;;;;;;;;5010640;28;20582;-68
2022/06/30 13:13:32;;;;;;;5.03;4.73;;;;;;;;;;5011175;28;20665;-69
2022/06/30 13:16:23;;;;;;;4.60;4.30;;;;;;;;;;5003766;28;20459;-69
2022/06/30 13:19:15;;;;;;;5.43;5.03;;;;;;;;;;5008918;28;20944;-69
2022/06/30 13:22:05;;;;;;;4.80;4.47;;;;;;;;;;5007244;28;20455;-69
2022/06/30 13:24:54;;;;;;;4.97;4.63;;;;;;;;;;5006505;28;21181;-69
2022/06/30 13:27:47;;;;;;;5.10;4.70;;;;;;;;;;5009567;28;20566;-69
2022/06/30 13:30:36;;;;;;;4.87;4.57;;;;;;;;;;5007941;28;20542;-69
2022/06/30 13:33:24;;;;;;;5.20;4.90;;;;;;;;;;5003262;28;21852;-69
2022/06/30 13:36:13;;;;;;;5.33;4.93;;;;;;;;;;5009937;28;20601;-69
2022/06/30 13:39:04;;;;;;;5.27;4.73;;;;;;;;;;5015382;28;20635;-69
2022/06/30 13:41:53;;;;;;;4.80;4.37;;;;;;;;;;5009818;28;20995;-69
2022/06/30 13:44:44;;;;;;;5.17;4.80;;;;;;;;;;5006853;28;20471;-69
2022/06/30 13:47:33;;;;;;;4.40;4.20;;;;;;;;;;5009698;28;20558;-69
2022/06/30 13:50:21;;;;;;;5.13;4.77;;;;;;;;;;5017052;28;20537;-68
2022/06/30 13:53:19;;;;;;;5.37;4.97;;;;;;;;;;5016540;28;20483;-68
2022/06/30 13:56:09;;;;;;;5.00;4.70;;;;;;;;;;5011834;28;20578;-69
2022/06/30 13:58:58;;;;;;;4.93;4.63;;;;;;;;;;5010319;28;20571;-69
2022/06/30 14:01:48;;;;;;;4.50;4.20;;;;;;;;;;5003799;28;20466;-69
2022/06/30 14:04:37;;;;;;;4.70;4.30;;;;;;;;;;5013998;28;20495;-68
2022/06/30 14:07:26;;;;;;;4.77;4.47;;;;;;;;;;5003467;28;21603;-69
2022/06/30 14:10:16;;;;;;;4.40;4.20;;;;;;;;;;5012040;28;21407;-69
2022/06/30 14:13:06;;;;;;;5.23;4.83;;;;;;;;;;5009426;28;20475;-69
2022/06/30 14:15:55;;;;;;;4.60;4.30;;;;;;;;;;5009957;28;20487;-69
2022/06/30 14:18:44;;;;;;;4.80;4.50;;;;;;;;;;5012422;28;20437;-68
2022/06/30 14:21:34;;;;;;;5.13;4.83;;;;;;;;;;5007210;28;20911;-69
2022/06/30 14:24:22;;;;;;;4.40;4.10;;;;;;;;;;5009446;28;20482;-69
2022/06/30 14:27:12;;;;;;;5.23;4.90;;;;;;;;;;5010807;28;20456;-69
2022/06/30 14:30:02;;;;;;;5.40;4.93;;;;;;;;;;5010406;28;20487;-69
2022/06/30 14:32:51;;;;;;;5.10;4.80;;;;;;;;;;5015580;28;20457;-68
2022/06/30 14:35:40;;;;;;;5.03;4.63;;;;;;;;;;5005826;28;20917;-69
2022/06/30 14:38:29;;;;;;;4.97;4.67;;;;;;;;;;5003710;28;20569;-68
2022/06/30 14:42:43;;;;;;;4.23;4.03;;;;;;;;;;5005446;28;20575;-69
2022/06/30 14:44:26;;;;;;;5.50;5.10;;;;;;;;;;5010103;28;20614;-69
2022/06/30 14:47:16;;;;;;;5.10;4.73;;;;;;;;;;5006192;28;20833;-69
2022/06/30 14:50:05;;;;;;;4.47;4.10;;;;;;;;;;5009549;28;20475;-69
2022/06/30 14:52:53;;;;;;;4.80;4.40;;;;;;;;;;5009384;28;20452;-68
2022/06/30 14:55:42;;;;;;;4.53;4.13;;;;;;;;;;5012097;28;20937;-68
2022/06/30 14:58:30;;;;;;;5.07;4.63;;;;;;;;;;5009280;28;20495;-68
2022/06/30 15:01:19;;;;;;;4.70;4.40;;;;;;;;;;5011853;28;20471;-68
2022/06/30 15:04:09;;;;;;;5.20;4.90;;;;;;;;;;5012444;28;20562;-67
2022/06/30 15:06:58;;;;;;;4.77;4.43;;;;;;;;;;5007607;28;20464;-68
2022/06/30 15:09:48;;;;;;;4.77;4.37;;;;;;;;;;5010826;28;20497;-68
2022/06/30 15:12:38;;;;;;;4.80;4.40;;;;;;;;;;5003200;28;20499;-68
2022/06/30 15:15:27;;;;;;;4.60;4.30;;;;;;;;;;5007366;28;20499;-67
2022/06/30 15:18:16;;;;;;;6.07;4.80;;;;;;;;;;5009846;28;20530;-67
2022/06/30 15:24:12;;;;;;;4.10;3.83;;;;;;;;;;5011901;28;20593;-67
2022/06/30 15:27:01;;;;;;;3.67;3.47;;;;;;;;;;5010445;28;20706;-69
2022/06/30 15:29:52;;;;;;;3.47;3.27;;;;;;;;;;5008835;28;20488;-67
2022/06/30 15:32:41;;;;;;;3.60;3.30;;;;;;;;;;5007161;28;20576;-67
2022/06/30 15:35:32;;;;;;;3.90;3.57;;;;;;;;;;5004970;28;20639;-67
2022/06/30 15:38:22;;;;;;;3.80;3.53;;;;;;;;;;5003157;28;20638;-67
2022/06/30 15:41:11;;;;;;;3.30;3.07;;;;;;;;;;5009172;28;20570;-67
2022/06/30 15:44:01;;;;;;;4.43;3.53;;;;;;;;;;5008580;28;20499;-67
2022/06/30 15:46:49;;;;;;;3.43;3.13;;;;;;;;;;5007861;28;20458;-67
2022/06/30 15:49:40;;;;;;;3.53;3.33;;;;;;;;;;5011466;28;20487;-68
2022/06/30 15:52:29;;;;;;;4.50;2.93;;;;;;;;;;5007508;28;20458;-67
2022/06/30 15:55:19;;;;;;;3.70;3.40;;;;;;;;;;5010376;28;20593;-68
2022/06/30 15:58:07;;;;;;;3.20;2.90;;;;;;;;;;5006599;28;20593;-69
2022/06/30 16:00:56;;;;;;;3.33;3.03;;;;;;;;;;4995485;28;20850;-68
2022/06/30 16:03:45;;;;;;;3.27;3.07;;;;;;;;;;4993374;28;20563;-68
2022/06/30 16:06:34;;;;;;;3.50;3.30;;;;;;;;;;5003366;28;20459;-68
2022/06/30 16:09:22;;;;;;;3.37;3.10;;;;;;;;;;5004865;28;20567;-68
2022/06/30 16:12:12;;;;;;;3.00;2.80;;;;;;;;;;5009937;28;20556;-68
2022/06/30 16:15:03;;;;;;;3.60;2.80;;;;;;;;;;5004923;28;20618;-68
2022/06/30 16:17:53;;;;;;;4.27;3.07;;;;;;;;;;5007065;28;21531;-68
2022/06/30 16:20:44;;;;;;;4.03;3.10;;;;;;;;;;5005067;28;20511;-68
2022/06/30 16:23:36;;;;;;;3.33;3.03;;;;;;;;;;5001583;28;20447;-70
2022/06/30 16:26:25;;;;;;;3.27;3.03;;;;;;;;;;5006018;28;20490;-68
2022/06/30 16:29:19;;;;;;;3.60;3.30;;;;;;;;;;5004402;28;20586;-70
2022/06/30 16:32:09;;;;;;;3.13;2.93;;;;;;;;;;5005482;28;20484;-68
2022/06/30 16:34:58;;;;;;;3.40;3.10;;;;;;;;;;5000578;28;20492;-68
2022/06/30 16:37:46;;;;;;;3.60;3.40;;;;;;;;;;5003262;28;20458;-68
2022/06/30 16:40:35;;;;;;;3.50;3.20;;;;;;;;;;5002226;28;20479;-68
2022/06/30 16:43:29;;;;;;;4.30;3.37;;;;;;;;;;5004537;28;20781;-68
2022/06/30 16:46:22;;;;;;;3.67;3.37;;;;;;;;;;5005358;28;20476;-67
2022/06/30 16:49:13;;;;;;;3.20;3.00;;;;;;;;;;5007642;28;21007;-68
2022/06/30 16:52:02;;;;;;;3.40;3.20;;;;;;;;;;5011139;28;20513;-69
2022/06/30 16:54:50;;;;;;;4.63;3.27;;;;;;;;;;5005015;28;20519;-68
2022/06/30 16:57:39;;;;;;;6.07;3.50;;;;;;;;;;5010722;28;20538;-68
2022/06/30 17:00:28;;;;;;;3.10;2.90;;;;;;;;;;5008944;28;20476;-68
2022/06/30 17:03:18;;;;;;;3.20;2.90;;;;;;;;;;5007374;28;20571;-68